createdAt,value
2023-02-06T00:00:47.011Z,1.50
2023-02-06T00:03:14.134Z,1.50
2023-02-06T00:05:40.837Z,1.50
2023-02-06T00:08:07.785Z,1.50
2023-02-06T00:10:34.812Z,1.50
2023-02-06T00:13:01.533Z,1.40
2023-02-06T00:15:28.238Z,1.50
2023-02-06T00:17:54.904Z,1.50
2023-02-06T00:20:21.837Z,1.50
2023-02-06T00:22:48.536Z,1.40
2023-02-06T00:25:15.297Z,1.40
2023-02-06T00:27:41.995Z,1.40
2023-02-06T00:30:09.253Z,1.40
2023-02-06T00:32:36.024Z,1.40
2023-02-06T00:35:02.931Z,1.40
2023-02-06T00:37:29.725Z,1.30
2023-02-06T00:39:56.399Z,1.40
2023-02-06T00:42:23.126Z,1.30
2023-02-06T00:44:49.812Z,1.30
2023-02-06T00:47:16.607Z,1.20
2023-02-06T00:49:43.365Z,1.30
2023-02-06T00:52:10.581Z,1.30
2023-02-06T00:54:37.246Z,1.30
2023-02-06T00:57:04.109Z,1.30
2023-02-06T00:59:30.844Z,1.30
2023-02-06T01:01:57.759Z,1.30
2023-02-06T01:04:24.673Z,1.30
2023-02-06T01:06:51.662Z,1.30
2023-02-06T01:09:18.800Z,1.30
2023-02-06T01:11:45.916Z,1.30
2023-02-06T01:14:12.869Z,1.30
2023-02-06T01:16:40.421Z,1.30
2023-02-06T01:19:07.431Z,1.30
2023-02-06T01:21:34.339Z,1.30
2023-02-06T01:24:01.195Z,1.30
2023-02-06T01:26:28.254Z,1.30
2023-02-06T01:28:55.710Z,1.30
2023-02-06T01:31:26.207Z,1.30
2023-02-06T01:33:53.845Z,1.30
2023-02-06T01:36:21.922Z,1.30
2023-02-06T01:38:49.577Z,1.30
2023-02-06T01:41:19.652Z,1.30
2023-02-06T01:44:06.433Z,1.30
2023-02-06T01:46:33.784Z,1.30
2023-02-06T01:49:01.818Z,1.30
2023-02-06T01:51:30.611Z,1.30
2023-02-06T01:54:03.714Z,1.30
2023-02-06T01:56:34.801Z,1.30
2023-02-06T01:59:05.482Z,1.30
2023-02-06T02:01:33.606Z,1.30
2023-02-06T02:04:06.498Z,1.30
2023-02-06T02:06:34.725Z,1.30
2023-02-06T02:09:04.006Z,1.40
2023-02-06T02:11:38.164Z,1.30
2023-02-06T02:14:07.513Z,1.30
2023-02-06T02:17:13.067Z,1.30
2023-02-06T02:20:14.445Z,1.30
2023-02-06T02:23:11.214Z,1.30
2023-02-06T02:26:03.760Z,1.40
2023-02-06T02:28:55.684Z,1.40
2023-02-06T02:31:53.389Z,1.40
2023-02-06T02:34:49.324Z,1.40
2023-02-06T02:37:35.147Z,1.30
2023-02-06T02:40:20.662Z,1.30
2023-02-06T02:42:47.544Z,1.30
2023-02-06T02:45:43.634Z,1.30
2023-02-06T02:48:33.393Z,1.30
2023-02-06T02:51:00.925Z,1.30
2023-02-06T02:53:28.345Z,1.30
2023-02-06T02:55:55.734Z,1.30
2023-02-06T02:58:26.776Z,1.30
2023-02-06T03:01:03.236Z,1.30
2023-02-06T03:03:32.626Z,1.40
2023-02-06T03:06:37.698Z,1.30
2023-02-06T03:09:10.377Z,1.30
2023-02-06T03:11:43.436Z,1.30
2023-02-06T03:14:29.320Z,1.30
2023-02-06T03:17:04.759Z,1.30
2023-02-06T03:19:40.234Z,1.30
2023-02-06T03:22:07.248Z,1.30
2023-02-06T03:24:38.471Z,1.30
2023-02-06T03:27:09.631Z,1.30
2023-02-06T03:29:38.915Z,1.30
2023-02-06T03:32:09.305Z,1.30
2023-02-06T03:34:48.334Z,1.30
2023-02-06T03:37:15.314Z,1.30
2023-02-06T03:39:42.422Z,1.30
2023-02-06T03:42:12.701Z,1.20
2023-02-06T03:44:45.356Z,1.20
2023-02-06T03:47:13.777Z,1.20
2023-02-06T03:49:43.455Z,1.20
2023-02-06T03:52:17.251Z,1.20
2023-02-06T03:54:51.367Z,1.20
2023-02-06T03:57:24.041Z,1.30
2023-02-06T03:59:51.800Z,1.20
2023-02-06T04:02:20.365Z,1.20
2023-02-06T04:04:47.763Z,1.20
2023-02-06T04:07:25.390Z,1.20
2023-02-06T04:09:52.941Z,1.20
2023-02-06T04:12:20.698Z,1.20
2023-02-06T04:14:47.827Z,1.20
2023-02-06T04:17:21.099Z,1.20
2023-02-06T04:19:58.552Z,1.20
2023-02-06T04:22:25.421Z,1.20
2023-02-06T04:24:52.358Z,1.20
2023-02-06T04:27:19.370Z,1.20
2023-02-06T04:29:46.193Z,1.20
2023-02-06T04:32:13.856Z,1.20
2023-02-06T04:34:40.720Z,1.20
2023-02-06T04:37:07.900Z,1.20
2023-02-06T04:39:34.922Z,1.20
2023-02-06T04:42:02.859Z,1.10
2023-02-06T04:44:30.142Z,1.20
2023-02-06T04:46:57.345Z,1.20
2023-02-06T04:49:24.214Z,1.20
2023-02-06T04:51:51.136Z,1.20
2023-02-06T04:54:18.455Z,1.20
2023-02-06T04:56:46.254Z,1.20
2023-02-06T04:59:13.601Z,1.10
2023-02-06T05:01:40.556Z,1.10
2023-02-06T05:04:08.622Z,1.10
2023-02-06T05:06:36.559Z,1.10
2023-02-06T05:09:04.703Z,1.00
2023-02-06T05:11:31.540Z,1.10
2023-02-06T05:13:58.603Z,1.10
2023-02-06T05:16:25.513Z,1.00
2023-02-06T05:18:56.817Z,1.10
2023-02-06T05:21:25.288Z,1.00
2023-02-06T05:23:52.518Z,1.00
2023-02-06T05:26:20.485Z,1.00
2023-02-06T05:28:47.724Z,1.00
2023-02-06T05:31:19.879Z,1.00
2023-02-06T05:33:51.114Z,1.00
2023-02-06T05:36:19.946Z,1.00
2023-02-06T05:38:48.068Z,1.00
2023-02-06T05:41:16.178Z,1.00
2023-02-06T05:43:43.421Z,1.00
2023-02-06T05:46:12.925Z,1.00
2023-02-06T05:48:40.341Z,1.00
2023-02-06T05:51:07.278Z,1.00
2023-02-06T05:53:34.127Z,1.00
2023-02-06T05:56:01.025Z,1.00
2023-02-06T05:58:28.040Z,1.00
2023-02-06T06:00:54.967Z,1.00
2023-02-06T06:03:35.854Z,1.00
2023-02-06T06:06:02.768Z,1.00
2023-02-06T06:08:29.498Z,1.00
2023-02-06T06:10:56.421Z,1.00
2023-02-06T06:13:23.197Z,1.00
2023-02-06T06:15:51.761Z,0.90
2023-02-06T06:18:19.996Z,1.00
2023-02-06T06:20:47.260Z,1.00
2023-02-06T06:23:14.100Z,1.00
2023-02-06T06:25:40.933Z,1.00
2023-02-06T06:28:07.578Z,1.00
2023-02-06T06:30:35.735Z,1.00
2023-02-06T06:33:02.561Z,1.00
2023-02-06T06:35:29.516Z,1.00
2023-02-06T06:37:56.207Z,0.90
2023-02-06T06:40:23.030Z,0.90
2023-02-06T06:42:49.787Z,0.90
2023-02-06T06:45:16.655Z,0.90
2023-02-06T06:47:43.356Z,0.90
2023-02-06T06:50:10.215Z,0.90
2023-02-06T06:52:36.994Z,0.90
2023-02-06T06:55:03.905Z,0.90
2023-02-06T06:57:32.506Z,0.90
2023-02-06T06:59:59.496Z,0.80
2023-02-06T07:02:28.405Z,0.90
2023-02-06T07:04:55.761Z,0.80
2023-02-06T07:07:23.399Z,0.80
2023-02-06T07:09:50.934Z,0.90
2023-02-06T07:12:17.839Z,0.80
2023-02-06T07:14:44.626Z,0.80
2023-02-06T07:17:11.621Z,0.80
2023-02-06T07:19:38.276Z,0.80
2023-02-06T07:22:05.145Z,0.80
2023-02-06T07:24:31.886Z,0.80
2023-02-06T07:26:58.683Z,0.70
2023-02-06T07:29:25.529Z,0.80
2023-02-06T07:31:52.378Z,0.80
2023-02-06T07:34:19.459Z,0.80
2023-02-06T07:36:46.407Z,0.80
2023-02-06T07:39:13.150Z,0.80
2023-02-06T07:41:39.849Z,0.70
2023-02-06T07:44:06.840Z,0.80
2023-02-06T07:46:34.616Z,0.80
2023-02-06T07:49:01.670Z,0.70
2023-02-06T07:51:28.828Z,0.70
2023-02-06T07:53:57.160Z,0.70
2023-02-06T07:56:25.196Z,0.80
2023-02-06T07:58:55.339Z,0.80
2023-02-06T08:01:24.069Z,0.80
2023-02-06T08:03:53.382Z,0.80
2023-02-06T08:06:24.252Z,0.90
2023-02-06T08:08:54.125Z,0.90
2023-02-06T08:11:21.533Z,0.80
2023-02-06T08:13:48.556Z,0.80
2023-02-06T08:16:21.495Z,0.80
2023-02-06T08:18:48.670Z,0.80
2023-02-06T08:21:17.989Z,0.90
2023-02-06T08:23:45.503Z,0.90
2023-02-06T08:26:18.175Z,0.90
2023-02-06T08:28:47.735Z,0.90
2023-02-06T08:31:30.180Z,0.90
2023-02-06T08:33:57.327Z,0.90
2023-02-06T08:36:25.555Z,0.90
2023-02-06T08:38:53.172Z,0.90
2023-02-06T08:41:28.244Z,0.90
2023-02-06T08:43:57.939Z,0.80
2023-02-06T08:46:28.187Z,0.80
2023-02-06T08:48:56.920Z,0.80
2023-02-06T08:51:27.798Z,0.70
2023-02-06T08:54:04.422Z,0.80
2023-02-06T08:56:32.483Z,0.80
2023-02-06T08:59:00.399Z,0.70
2023-02-06T09:01:28.882Z,0.80
2023-02-06T09:03:58.023Z,0.90
2023-02-06T09:06:25.535Z,0.90
2023-02-06T09:08:53.398Z,0.90
2023-02-06T09:11:22.428Z,1.00
2023-02-06T09:13:50.169Z,1.00
2023-02-06T09:16:19.672Z,0.90
2023-02-06T09:18:47.055Z,0.90
2023-02-06T09:21:16.501Z,0.80
2023-02-06T09:23:45.988Z,0.90
2023-02-06T09:26:15.832Z,0.90
2023-02-06T09:28:42.852Z,0.90
2023-02-06T09:31:10.195Z,0.90
2023-02-06T09:33:38.429Z,0.90
2023-02-06T09:36:14.208Z,0.90
2023-02-06T09:38:44.861Z,0.90
2023-02-06T09:41:26.763Z,0.90
2023-02-06T09:44:16.598Z,0.90
2023-02-06T09:46:48.254Z,1.00
2023-02-06T09:49:20.724Z,1.00
2023-02-06T09:52:22.228Z,1.00
2023-02-06T09:55:03.754Z,1.00
2023-02-06T09:58:03.854Z,1.00
2023-02-06T10:00:55.284Z,1.00
2023-02-06T10:03:28.016Z,0.90
2023-02-06T10:06:20.094Z,0.90
2023-02-06T10:09:14.125Z,0.90
2023-02-06T10:11:59.349Z,0.90
2023-02-06T10:14:52.590Z,0.90
2023-02-06T10:17:25.278Z,0.80
2023-02-06T10:20:12.126Z,0.90
2023-02-06T10:22:57.529Z,0.90
2023-02-06T10:25:30.519Z,1.00
2023-02-06T10:28:03.323Z,1.00
2023-02-06T10:30:46.019Z,1.00
2023-02-06T10:33:25.690Z,1.00
2023-02-06T10:36:02.110Z,1.00
2023-02-06T10:39:07.752Z,1.00
2023-02-06T10:41:55.388Z,1.00
2023-02-06T10:44:51.734Z,1.00
2023-02-06T10:47:32.079Z,0.90
2023-02-06T10:50:08.153Z,0.90
2023-02-06T10:52:37.428Z,0.90
2023-02-06T10:55:17.733Z,0.90
2023-02-06T10:57:47.209Z,0.80
2023-02-06T11:00:34.792Z,0.90
2023-02-06T11:03:08.188Z,0.90
2023-02-06T11:05:36.674Z,1.00
2023-02-06T11:08:06.742Z,0.90
2023-02-06T11:10:33.986Z,1.10
2023-02-06T11:13:14.034Z,1.00
2023-02-06T11:16:08.858Z,0.90
2023-02-06T11:18:42.383Z,0.90
2023-02-06T11:21:10.776Z,1.00
2023-02-06T11:23:37.498Z,0.90
2023-02-06T11:26:10.593Z,0.90
2023-02-06T11:28:58.482Z,1.00
2023-02-06T11:31:51.082Z,0.90
2023-02-06T11:34:28.809Z,1.00
2023-02-06T11:36:58.576Z,1.00
2023-02-06T11:39:36.660Z,1.00
2023-02-06T11:42:15.269Z,1.00
2023-02-06T11:44:43.804Z,1.00
2023-02-06T11:47:30.281Z,1.00
2023-02-06T11:50:13.204Z,1.00
2023-02-06T11:52:42.090Z,0.90
2023-02-06T11:55:29.255Z,0.90
2023-02-06T11:58:16.223Z,0.90
2023-02-06T12:00:51.934Z,1.00
2023-02-06T12:03:35.705Z,1.00
2023-02-06T12:06:30.492Z,1.00
2023-02-06T12:08:59.912Z,1.00
2023-02-06T12:11:57.348Z,1.00
2023-02-06T12:14:51.100Z,1.00
2023-02-06T12:17:43.905Z,1.00
2023-02-06T12:20:26.439Z,1.00
2023-02-06T12:23:12.145Z,1.00
2023-02-06T12:25:42.089Z,1.00
2023-02-06T12:28:18.231Z,1.00
2023-02-06T12:30:51.340Z,1.00
2023-02-06T12:33:45.911Z,1.00
2023-02-06T12:36:16.673Z,1.00
2023-02-06T12:39:03.937Z,1.00
2023-02-06T12:42:00.545Z,1.00
2023-02-06T12:44:49.501Z,1.00
2023-02-06T12:47:40.175Z,1.00
2023-02-06T12:50:17.432Z,1.00
2023-02-06T12:52:57.238Z,1.10
2023-02-06T12:55:54.178Z,1.00
2023-02-06T12:58:31.961Z,1.10
2023-02-06T13:01:42.872Z,1.10
2023-02-06T13:04:18.924Z,1.00
2023-02-06T13:06:57.950Z,1.10
2023-02-06T13:09:33.165Z,1.10
2023-02-06T13:12:23.689Z,1.10
2023-02-06T13:15:06.019Z,1.10
2023-02-06T13:17:38.676Z,1.10
2023-02-06T13:20:11.522Z,1.00
2023-02-06T13:22:43.322Z,1.10
2023-02-06T13:25:31.915Z,1.10
2023-02-06T13:28:03.426Z,1.10
2023-02-06T13:30:30.167Z,1.10
2023-02-06T13:33:09.960Z,1.10
2023-02-06T13:35:55.467Z,1.10
2023-02-06T13:38:34.551Z,1.10
2023-02-06T13:41:16.511Z,1.10
2023-02-06T13:44:00.711Z,1.10
2023-02-06T13:46:57.983Z,1.00
2023-02-06T13:49:53.696Z,1.10
2023-02-06T13:52:39.018Z,1.00
2023-02-06T13:55:24.495Z,1.10
2023-02-06T13:58:16.631Z,1.10
2023-02-06T14:00:47.180Z,1.00
2023-02-06T14:03:26.369Z,1.00
2023-02-06T14:06:12.963Z,1.00
2023-02-06T14:08:39.748Z,1.00
2023-02-06T14:11:31.749Z,0.90
2023-02-06T14:14:27.281Z,1.00
2023-02-06T14:17:03.449Z,1.00
2023-02-06T14:19:51.868Z,1.00
2023-02-06T14:22:38.199Z,1.00
2023-02-06T14:25:30.286Z,1.00
2023-02-06T14:28:23.641Z,1.00
2023-02-06T14:31:05.634Z,1.00
2023-02-06T14:33:51.342Z,1.00
2023-02-06T14:36:18.126Z,1.00
2023-02-06T14:39:00.434Z,1.00
2023-02-06T14:41:30.840Z,1.00
2023-02-06T14:43:58.972Z,1.00
2023-02-06T14:46:27.455Z,1.00
2023-02-06T14:48:59.765Z,1.10
2023-02-06T14:51:28.292Z,1.10
2023-02-06T14:54:04.412Z,1.00
2023-02-06T14:56:36.713Z,1.00
2023-02-06T14:59:12.804Z,1.10
2023-02-06T15:01:40.567Z,1.00
2023-02-06T15:04:14.776Z,1.00
2023-02-06T15:06:44.999Z,1.00
2023-02-06T15:09:27.551Z,1.00
2023-02-06T15:11:56.998Z,1.00
2023-02-06T15:14:35.022Z,1.00
2023-02-06T15:17:02.823Z,1.00
2023-02-06T15:19:35.573Z,1.00
2023-02-06T15:22:23.224Z,1.00
2023-02-06T15:25:08.290Z,1.00
2023-02-06T15:27:37.282Z,1.00
2023-02-06T15:30:32.266Z,1.00
2023-02-06T15:32:59.819Z,1.00
2023-02-06T15:35:34.992Z,1.00
2023-02-06T15:38:11.403Z,1.00
2023-02-06T15:40:42.260Z,1.10
2023-02-06T15:43:20.153Z,1.00
2023-02-06T15:45:48.927Z,1.00
2023-02-06T15:48:30.512Z,1.00
2023-02-06T15:51:26.326Z,1.00
2023-02-06T15:54:08.088Z,1.00
2023-02-06T15:56:41.544Z,1.00
2023-02-06T15:59:16.942Z,0.90
2023-02-06T16:01:44.146Z,0.90
2023-02-06T16:04:24.188Z,1.00
2023-02-06T16:07:18.129Z,1.00
2023-02-06T16:09:51.482Z,1.00
2023-02-06T16:12:19.034Z,1.00
2023-02-06T16:15:27.733Z,0.90
2023-02-06T16:17:55.955Z,1.00
2023-02-06T16:20:36.956Z,1.00
2023-02-06T16:23:22.161Z,1.00
2023-02-06T16:26:14.251Z,1.00
2023-02-06T16:28:51.920Z,1.00
2023-02-06T16:31:22.292Z,1.00
2023-02-06T16:33:51.584Z,0.90
2023-02-06T16:36:21.020Z,1.00
2023-02-06T16:38:57.677Z,1.00
2023-02-06T16:41:38.794Z,0.90
2023-02-06T16:44:13.868Z,1.00
2023-02-06T16:46:40.804Z,1.00
2023-02-06T16:49:12.956Z,1.00
2023-02-06T16:51:41.712Z,1.00
2023-02-06T16:54:12.234Z,0.90
2023-02-06T16:56:39.355Z,1.00
2023-02-06T16:59:06.255Z,0.90
2023-02-06T17:01:33.066Z,1.00
2023-02-06T17:03:59.903Z,1.00
2023-02-06T17:06:33.088Z,1.00
2023-02-06T17:09:04.452Z,1.00
2023-02-06T17:11:31.606Z,1.00
2023-02-06T17:13:58.625Z,1.00
2023-02-06T17:16:27.238Z,1.00
2023-02-06T17:18:57.542Z,0.90
2023-02-06T17:21:24.853Z,0.90
2023-02-06T17:23:52.067Z,0.90
2023-02-06T17:26:22.299Z,0.90
2023-02-06T17:28:49.896Z,0.90
2023-02-06T17:31:17.209Z,0.90
2023-02-06T17:33:44.415Z,0.90
2023-02-06T17:36:22.400Z,0.90
2023-02-06T17:38:49.627Z,0.90
2023-02-06T17:41:16.716Z,0.90
2023-02-06T17:43:46.401Z,0.80
2023-02-06T17:46:13.344Z,0.90
2023-02-06T17:48:42.842Z,0.90
2023-02-06T17:51:10.568Z,0.90
2023-02-06T17:53:37.421Z,0.90
2023-02-06T17:56:07.979Z,0.90
2023-02-06T17:58:35.343Z,0.80
2023-02-06T18:01:02.103Z,0.90
2023-02-06T18:03:28.864Z,0.80
2023-02-06T18:06:00.296Z,0.80
2023-02-06T18:08:29.918Z,0.90
2023-02-06T18:10:56.865Z,0.80
2023-02-06T18:13:24.690Z,0.80
2023-02-06T18:15:56.199Z,0.80
2023-02-06T18:18:24.414Z,0.80
2023-02-06T18:20:52.199Z,0.70
2023-02-06T18:23:21.838Z,0.80
2023-02-06T18:26:07.133Z,0.80
2023-02-06T18:28:35.660Z,0.80
2023-02-06T18:31:02.556Z,0.70
2023-02-06T18:33:30.724Z,0.80
2023-02-06T18:35:57.884Z,0.70
2023-02-06T18:38:25.016Z,0.70
2023-02-06T18:40:54.760Z,0.80
2023-02-06T18:43:21.621Z,0.80
2023-02-06T18:45:48.481Z,0.80
2023-02-06T18:48:15.258Z,0.70
2023-02-06T18:50:42.885Z,0.80
2023-02-06T18:53:10.105Z,0.80
2023-02-06T18:55:37.370Z,0.80
2023-02-06T18:58:05.971Z,0.70
2023-02-06T19:00:35.488Z,0.80
2023-02-06T19:03:02.588Z,0.80
2023-02-06T19:05:30.764Z,0.70
2023-02-06T19:07:57.645Z,0.70
2023-02-06T19:10:25.973Z,0.70
2023-02-06T19:12:52.741Z,0.70
2023-02-06T19:15:19.968Z,0.70
2023-02-06T19:17:47.004Z,0.70
2023-02-06T19:20:13.830Z,0.70
2023-02-06T19:22:40.567Z,0.70
2023-02-06T19:25:13.326Z,0.70
2023-02-06T19:27:41.143Z,0.70
2023-02-06T19:30:12.937Z,0.60
2023-02-06T19:32:39.741Z,0.60
2023-02-06T19:35:06.976Z,0.60
2023-02-06T19:37:33.732Z,0.60
2023-02-06T19:40:00.508Z,0.60
2023-02-06T19:42:27.581Z,0.50
2023-02-06T19:44:57.322Z,0.50
2023-02-06T19:47:24.074Z,0.60
2023-02-06T19:49:52.502Z,0.50
2023-02-06T19:52:20.200Z,0.50
2023-02-06T19:54:49.834Z,0.50
2023-02-06T19:57:21.660Z,0.50
2023-02-06T19:59:48.532Z,0.50
2023-02-06T20:02:17.114Z,0.40
2023-02-06T20:04:46.033Z,0.40
2023-02-06T20:07:12.919Z,0.40
2023-02-06T20:09:42.015Z,0.40
2023-02-06T20:12:12.704Z,0.30
2023-02-06T20:14:39.697Z,0.40
2023-02-06T20:17:06.452Z,0.40
2023-02-06T20:19:33.499Z,0.40
2023-02-06T20:22:04.409Z,0.40
2023-02-06T20:24:32.797Z,0.50
2023-02-06T20:27:02.075Z,0.50
2023-02-06T20:29:35.406Z,0.50
2023-02-06T20:32:04.104Z,0.50
2023-02-06T20:34:31.205Z,0.50
2023-02-06T20:36:58.644Z,0.50
2023-02-06T20:39:26.332Z,0.50
2023-02-06T20:41:53.907Z,0.50
2023-02-06T20:44:20.910Z,0.50
2023-02-06T20:46:48.201Z,0.50
2023-02-06T20:49:20.866Z,0.50
2023-02-06T20:51:50.218Z,0.50
2023-02-06T20:54:18.302Z,0.50
2023-02-06T20:56:48.271Z,0.40
2023-02-06T20:59:16.647Z,0.40
2023-02-06T21:01:44.607Z,0.40
2023-02-06T21:04:13.209Z,0.40
2023-02-06T21:06:40.669Z,0.40
2023-02-06T21:09:08.491Z,0.40
2023-02-06T21:11:39.047Z,0.40
2023-02-06T21:14:07.116Z,0.40
2023-02-06T21:16:44.730Z,0.40
2023-02-06T21:19:26.848Z,0.40
2023-02-06T21:22:09.121Z,0.40
2023-02-06T21:31:39.549Z,0.40
2023-02-06T21:52:58.379Z,0.30
2023-02-06T21:55:25.458Z,0.30
2023-02-06T21:57:52.531Z,0.30
2023-02-06T22:00:22.318Z,0.20
2023-02-06T22:02:49.211Z,0.30
2023-02-06T22:05:15.994Z,0.40
2023-02-06T22:07:42.942Z,0.50
2023-02-06T22:10:10.420Z,0.30
2023-02-06T22:12:40.391Z,0.30
2023-02-06T22:15:08.000Z,0.30
2023-02-06T22:17:35.531Z,0.30
2023-02-06T22:20:02.581Z,0.30
2023-02-06T22:22:29.402Z,0.30
2023-02-06T22:24:56.204Z,0.20
2023-02-06T22:27:25.569Z,0.30
2023-02-06T22:29:55.101Z,0.30
2023-02-06T22:32:21.902Z,0.30
2023-02-06T22:34:50.820Z,0.30
2023-02-06T22:37:17.750Z,0.30
2023-02-06T22:39:44.656Z,0.20
2023-02-06T22:42:11.698Z,0.30
2023-02-06T22:44:39.184Z,0.20
2023-02-06T22:47:05.994Z,0.20
2023-02-06T22:49:32.815Z,0.10
2023-02-06T22:51:59.635Z,0.30
2023-02-06T22:54:26.504Z,0.10
2023-02-06T22:56:53.253Z,0.20
2023-02-06T22:59:27.705Z,0.20
2023-02-06T23:01:58.406Z,0.10
2023-02-06T23:04:34.688Z,0.00
2023-02-06T23:10:22.852Z,-0.10
2023-02-06T23:12:49.810Z,-0.10
2023-02-06T23:15:17.071Z,-0.20
2023-02-06T23:17:43.807Z,-0.10
2023-02-06T23:20:10.968Z,-0.20
2023-02-06T23:22:37.825Z,-0.20
2023-02-06T23:25:04.748Z,-0.20
2023-02-06T23:27:31.499Z,-0.20
2023-02-06T23:29:58.388Z,-0.30
2023-02-06T23:32:25.180Z,-0.30
2023-02-06T23:34:52.080Z,-0.30
2023-02-06T23:37:18.951Z,-0.30
2023-02-06T23:39:45.624Z,-0.40
2023-02-06T23:42:12.304Z,-0.50
2023-02-06T23:44:41.256Z,-0.50
2023-02-06T23:47:08.157Z,-0.50
2023-02-06T23:49:34.969Z,-0.60
2023-02-06T23:52:01.726Z,-0.70
2023-02-06T23:54:28.686Z,-0.70
2023-02-06T23:56:55.458Z,-0.70
2023-02-06T23:59:22.276Z,-0.70
